Time;durP1;ratioP1;P1;durP2;ratioP2;P2;SDS_P1;SDS_P2;PMS_P1;PMS_P2;Temp;Humidity;BMP_temperature;BMP_pressure;BME280_temperature;BME280_humidity;BME280_pressure;Samples;Min_cycle;Max_cycle;Signal;HPM_P1;HPM_P2
2022/05/20 00:03:31;;;;;;;9.27;4.93;;;;;;;18.53;64.75;96717.38;10371136;28;98975;-68
2022/05/20 00:08:35;;;;;;;7.80;4.38;;;;;;;18.68;63.00;96716.34;10370707;28;97591;-68
2022/05/20 00:13:38;;;;;;;9.98;4.85;;;;;;;18.74;62.93;96720.09;10367854;28;97541;-68
2022/05/20 00:18:42;;;;;;;5.72;4.40;;;;;;;18.68;63.24;96711.03;10370366;28;98784;-68
2022/05/20 00:23:46;;;;;;;6.00;4.77;;;;;;;18.49;63.45;96706.34;10365663;28;98542;-68
2022/05/20 00:28:49;;;;;;;7.57;5.10;;;;;;;18.31;64.47;96714.69;10368145;28;97733;-68
2022/05/20 00:33:53;;;;;;;8.73;4.85;;;;;;;18.26;64.85;96723.19;10370289;28;97827;-68
2022/05/20 00:38:57;;;;;;;10.60;5.93;;;;;;;18.20;64.02;96720.44;10367365;28;97901;-67
2022/05/20 00:44:00;;;;;;;6.90;4.40;;;;;;;18.18;64.22;96719.81;10369330;28;98061;-68
2022/05/20 00:49:08;;;;;;;7.25;4.68;;;;;;;18.11;64.31;96725.81;10367687;28;99260;-68
2022/05/20 00:54:16;;;;;;;6.43;4.93;;;;;;;18.02;64.69;96734.88;10368828;28;98176;-68
2022/05/20 00:59:24;;;;;;;7.95;5.07;;;;;;;17.95;65.14;96731.31;10364886;28;98696;-68
2022/05/20 01:04:28;;;;;;;7.78;5.05;;;;;;;17.74;65.11;96729.34;10369651;28;98912;-68
2022/05/20 01:09:33;;;;;;;9.13;4.88;;;;;;;17.66;64.92;96726.78;10371497;28;98161;-68
2022/05/20 01:14:36;;;;;;;7.38;4.22;;;;;;;17.58;64.56;96727.69;10368655;28;97948;-68
2022/05/20 01:19:45;;;;;;;9.90;4.55;;;;;;;17.53;64.62;96727.41;10370744;28;97818;-68
2022/05/20 01:24:49;;;;;;;8.07;4.93;;;;;;;17.44;64.61;96724.03;10369939;28;98959;-68
2022/05/20 01:29:52;;;;;;;7.32;4.18;;;;;;;17.35;64.28;96719.78;10369660;28;98544;-67
2022/05/20 01:34:55;;;;;;;11.63;4.93;;;;;;;17.38;64.53;96720.25;10367882;28;97083;-68
2022/05/20 01:40:01;;;;;;;7.63;4.22;;;;;;;17.29;64.08;96725.81;10368708;28;98457;-68
2022/05/20 01:45:11;;;;;;;5.35;3.33;;;;;;;17.40;62.78;96721.91;10369973;28;96824;-67
2022/05/20 01:50:17;;;;;;;7.68;3.88;;;;;;;17.52;62.15;96726.56;10365902;28;98746;-68
2022/05/20 01:55:28;;;;;;;8.55;3.58;;;;;;;17.69;61.18;96716.69;10367503;28;97833;-68
2022/05/20 02:00:33;;;;;;;7.20;3.78;;;;;;;17.74;60.60;96719.59;10365764;28;98349;-68
2022/05/20 02:05:40;;;;;;;9.57;4.13;;;;;;;17.69;60.50;96726.44;10366659;28;97303;-68
2022/05/20 02:10:49;;;;;;;6.65;3.78;;;;;;;17.48;62.03;96720.03;10368286;28;97973;-68
2022/05/20 02:15:56;;;;;;;8.30;4.25;;;;;;;17.24;62.83;96707.03;10365916;28;96967;-68
2022/05/20 02:21:04;;;;;;;6.57;4.78;;;;;;;17.11;63.67;96723.47;10365664;28;97147;-68
2022/05/20 02:26:13;;;;;;;7.72;4.90;;;;;;;16.89;65.14;96715.38;10364205;28;97725;-68
2022/05/20 02:31:23;;;;;;;5.93;4.97;;;;;;;16.71;65.57;96718.28;10362898;28;97245;-68
2022/05/20 02:36:31;;;;;;;8.80;4.88;;;;;;;16.55;65.52;96713.91;10368439;28;97502;-68
2022/05/20 02:41:35;;;;;;;7.25;5.70;;;;;;;16.49;65.95;96719.88;10372605;28;97745;-68
2022/05/20 02:46:39;;;;;;;9.10;3.83;;;;;;;16.38;65.45;96717.63;10372464;28;97584;-68
2022/05/20 02:51:42;;;;;;;9.27;3.83;;;;;;;16.29;64.76;96711.56;10373781;28;98645;-67
2022/05/20 02:56:46;;;;;;;10.93;4.28;;;;;;;16.11;65.41;96717.09;10369285;28;98733;-68
2022/05/20 03:07:09;;;;;;;5.53;3.33;;;;;;;15.99;64.90;96703.44;10373367;28;96913;-68
2022/05/20 03:12:14;;;;;;;10.23;4.20;;;;;;;15.88;65.75;96702.00;10372159;28;98648;-68
2022/05/20 03:17:17;;;;;;;8.48;3.75;;;;;;;15.70;65.48;96704.03;10372566;28;97865;-68
2022/05/20 03:22:20;;;;;;;5.13;3.33;;;;;;;15.53;66.03;96705.00;10371629;28;96892;-69
2022/05/20 03:27:24;;;;;;;6.18;3.78;;;;;;;15.53;66.04;96708.50;10374732;28;97745;-68
2022/05/20 03:32:27;;;;;;;6.32;3.17;;;;;;;15.60;65.55;96698.13;10364406;28;97274;-68
2022/05/20 03:37:30;;;;;;;5.90;3.17;;;;;;;15.58;64.99;96702.72;10370070;28;96924;-68
2022/05/20 03:42:35;;;;;;;8.02;3.38;;;;;;;15.43;65.45;96703.41;10371372;28;96993;-67
2022/05/20 03:47:38;;;;;;;7.45;3.25;;;;;;;15.38;65.31;96704.88;10372519;28;97100;-68
2022/05/20 03:52:41;;;;;;;4.15;3.00;;;;;;;15.29;65.45;96696.19;10370701;28;96793;-68
2022/05/20 03:57:45;;;;;;;7.53;3.20;;;;;;;15.15;66.34;96691.56;10370502;28;98679;-68
2022/05/20 04:02:48;;;;;;;6.63;3.63;;;;;;;15.06;65.82;96694.22;10369227;28;99141;-68
2022/05/20 04:07:51;;;;;;;6.95;3.53;;;;;;;15.05;66.21;96697.81;10371530;28;97782;-68
2022/05/20 04:12:55;;;;;;;4.22;3.35;;;;;;;15.03;66.03;96701.63;10371527;28;98687;-68
2022/05/20 04:17:58;;;;;;;5.67;3.70;;;;;;;14.95;67.00;96699.78;10372636;28;96875;-68
2022/05/20 04:23:01;;;;;;;4.30;3.55;;;;;;;14.98;67.28;96694.22;10362868;28;97775;-68
2022/05/20 04:28:05;;;;;;;5.50;3.95;;;;;;;14.97;66.53;96692.56;10367622;28;97418;-68
2022/05/20 04:33:09;;;;;;;5.60;3.80;;;;;;;15.01;67.64;96703.56;10366979;28;97958;-68
2022/05/20 04:38:11;;;;;;;7.07;4.30;;;;;;;15.04;67.29;96701.44;10369393;28;96977;-68
2022/05/20 04:48:36;;;;;;;8.00;4.72;;;;;;;15.08;68.62;96710.66;10368014;28;98045;-68
2022/05/20 04:59:01;;;;;;;6.53;4.15;;;;;;;15.28;68.03;96715.59;10369100;28;96971;-68
2022/05/20 05:04:04;;;;;;;5.75;4.00;;;;;;;15.36;67.70;96722.66;10366774;28;97026;-68
2022/05/20 05:09:07;;;;;;;6.30;3.90;;;;;;;15.41;67.92;96729.06;10369748;28;96875;-68
2022/05/20 05:14:14;;;;;;;5.55;4.20;;;;;;;15.59;67.77;96728.09;10369031;28;97947;-68
2022/05/20 05:19:17;;;;;;;10.15;4.40;;;;;;;15.71;68.12;96731.22;10372361;28;97035;-68
2022/05/20 05:24:20;;;;;;;7.57;4.70;;;;;;;15.83;67.91;96735.13;10367097;28;96837;-68
2022/05/20 05:29:25;;;;;;;8.02;4.25;;;;;;;15.97;67.75;96725.69;10369950;28;97711;-68
2022/05/20 05:34:28;;;;;;;;;;;;;;;16.12;66.93;96737.19;10363971;28;96926;-68
2022/05/20 05:39:31;;;;;;;5.22;3.80;;;;;;;16.30;66.80;96741.41;10366956;28;98962;-68
2022/05/20 05:44:35;;;;;;;8.60;3.78;;;;;;;16.47;65.92;96745.59;10375274;28;96928;-69
2022/05/20 05:49:38;;;;;;;6.07;3.47;;;;;;;16.63;65.56;96734.97;10366815;28;100660;-68
2022/05/20 05:54:41;;;;;;;7.78;3.60;;;;;;;16.84;65.17;96744.09;10374265;28;100724;-69
2022/05/20 05:59:45;;;;;;;6.53;3.67;;;;;;;17.06;64.13;96739.84;10367989;28;96768;-68
2022/05/20 06:04:49;;;;;;;6.43;3.30;;;;;;;17.23;63.15;96743.19;10366462;28;98388;-68
2022/05/20 06:09:52;;;;;;;8.00;3.65;;;;;;;17.35;62.93;96731.19;10371116;28;97318;-68
2022/05/20 06:14:56;;;;;;;6.47;3.00;;;;;;;17.55;62.98;96746.53;10373453;28;97164;-69
2022/05/20 06:19:59;;;;;;;9.93;4.20;;;;;;;17.75;62.96;96752.13;10369804;28;98126;-69
2022/05/20 06:25:02;;;;;;;8.70;4.05;;;;;;;17.94;62.95;96735.78;10380063;28;96725;-68
2022/05/20 06:30:10;;;;;;;8.85;3.90;;;;;;;18.17;62.35;96739.31;10375532;28;96884;-69
2022/05/20 06:40:33;;;;;;;11.20;4.18;;;;;;;18.43;62.73;96739.69;10377470;28;96950;-69
2022/05/20 06:45:38;;;;;;;7.88;4.05;;;;;;;18.57;62.03;96734.53;10379704;28;97190;-69
2022/05/20 06:51:00;;;;;;;7.33;4.00;;;;;;;18.79;60.97;96730.91;10376218;28;96805;-70
2022/05/20 06:56:04;;;;;;;5.13;3.22;;;;;;;19.00;61.08;96730.16;10382524;28;96921;-69
2022/05/20 07:01:08;;;;;;;9.48;3.88;;;;;;;19.13;59.61;96729.44;10369549;28;102114;-69
2022/05/20 07:06:12;;;;;;;6.43;3.80;;;;;;;19.27;59.47;96730.38;10390370;28;96850;-69
2022/05/20 07:11:18;;;;;;;5.78;3.20;;;;;;;19.35;59.19;96740.03;10390462;27;96938;-69
2022/05/20 07:16:23;;;;;;;5.63;3.75;;;;;;;19.50;58.85;96732.81;10385976;28;96817;-68
2022/05/20 07:21:27;;;;;;;8.68;3.70;;;;;;;19.70;58.04;96732.16;10390151;28;96704;-69
2022/05/20 07:26:31;;;;;;;;;;;;;;;19.85;58.57;96726.78;10390303;28;96943;-69
2022/05/20 07:31:36;;;;;;;7.97;3.25;;;;;;;19.99;56.95;96729.31;10386233;28;96978;-69
2022/05/20 07:36:39;;;;;;;;;;;;;;;20.18;57.71;96737.56;10389820;27;99847;-69
2022/05/20 07:41:42;;;;;;;15.25;3.63;;;;;;;20.33;56.45;96740.91;10389385;28;99694;-69
2022/05/20 07:46:46;;;;;;;5.80;3.22;;;;;;;20.49;55.86;96733.63;10386140;28;98653;-70
2022/05/20 07:51:55;;;;;;;6.63;3.08;;;;;;;20.61;55.66;96737.34;10387316;28;96866;-69
2022/05/20 07:57:01;;;;;;;7.38;3.42;;;;;;;20.77;55.42;96725.59;10389274;28;96871;-69
2022/05/20 08:02:06;;;;;;;6.75;3.38;;;;;;;20.96;54.86;96733.81;10389023;28;97391;-70
2022/05/20 08:07:10;;;;;;;6.28;3.05;;;;;;;21.13;55.27;96722.59;10368815;28;97081;-69
2022/05/20 08:12:14;;;;;;;4.70;2.70;;;;;;;21.23;54.74;96713.44;10388814;28;96836;-69
2022/05/20 08:17:25;;;;;;;7.05;3.38;;;;;;;21.24;54.58;96709.72;10388701;28;96724;-69
2022/05/20 08:22:29;;;;;;;4.38;3.28;;;;;;;21.28;54.31;96710.97;10384315;28;96835;-69
2022/05/20 08:27:32;;;;;;;8.27;3.40;;;;;;;21.47;54.20;96704.03;10388022;28;101149;-68
2022/05/20 08:32:37;;;;;;;7.15;3.42;;;;;;;21.64;53.46;96693.81;10388038;28;98349;-69
2022/05/20 08:37:42;;;;;;;6.18;3.58;;;;;;;21.79;53.24;96691.72;10382682;28;96758;-69
2022/05/20 08:42:45;;;;;;;4.38;3.08;;;;;;;21.84;52.84;96697.25;10386260;28;96701;-69
2022/05/20 08:47:51;;;;;;;8.43;3.10;;;;;;;21.93;52.48;96686.41;10387137;28;97177;-69
2022/05/20 08:52:57;;;;;;;11.30;3.65;;;;;;;21.96;52.15;96675.34;10385651;28;96963;-69
2022/05/20 08:58:02;;;;;;;7.80;3.15;;;;;;;22.13;52.54;96673.06;10383848;28;96734;-68
2022/05/20 09:03:08;;;;;;;5.57;3.50;;;;;;;22.29;52.15;96669.09;10386773;28;96733;-70
2022/05/20 09:08:25;;;;;;;4.25;3.13;;;;;;;22.43;51.35;96652.03;10386879;28;97071;-69
2022/05/20 09:18:51;;;;;;;3.95;2.70;;;;;;;22.77;49.61;96644.72;10251875;28;99596;-69
2022/05/20 09:23:56;;;;;;;4.28;2.90;;;;;;;22.92;48.86;96636.38;10252542;28;97129;-69
2022/05/20 09:29:06;;;;;;;4.32;2.70;;;;;;;23.10;48.91;96632.97;10251323;28;99723;-69
2022/05/20 09:34:36;;;;;;;6.68;3.00;;;;;;;23.23;47.47;96630.19;10236352;28;97087;-69
2022/05/20 09:39:42;;;;;;;5.90;2.75;;;;;;;23.25;47.62;96620.13;10247345;28;97010;-69
2022/05/20 09:44:47;;;;;;;3.75;2.70;;;;;;;23.35;46.95;96615.16;10252080;28;96980;-70
2022/05/20 09:49:55;;;;;;;5.13;3.05;;;;;;;23.46;47.25;96615.47;10250553;28;97015;-69
2022/05/20 09:55:02;;;;;;;4.35;3.20;;;;;;;23.60;47.40;96598.28;10318537;28;96976;-69
2022/05/20 10:00:10;;;;;;;4.93;2.88;;;;;;;23.77;46.91;96595.03;10385743;28;96824;-70
2022/05/20 10:05:27;;;;;;;5.53;2.58;;;;;;;23.92;46.39;96592.81;10385869;28;97108;-70
2022/05/20 10:10:53;;;;;;;7.47;2.50;;;;;;;24.08;45.28;96581.53;10380396;28;96959;-69
2022/05/20 10:16:10;;;;;;;4.75;2.22;;;;;;;24.26;44.65;96577.22;10379541;28;97973;-69
2022/05/20 10:21:26;;;;;;;5.65;2.58;;;;;;;24.54;44.06;96563.28;10384164;28;97820;-69
2022/05/20 10:26:38;;;;;;;9.27;2.45;;;;;;;24.84;41.85;96546.41;10384472;28;96870;-69
2022/05/20 10:37:22;;;;;;;5.80;2.10;;;;;;;25.18;39.94;96536.78;10364197;28;102429;-69
2022/05/20 10:42:42;;;;;;;2.85;2.08;;;;;;;25.31;38.66;96534.91;10384767;28;99156;-70
2022/05/20 10:53:41;;;;;;;7.43;1.70;;;;;;;25.65;36.55;96527.06;10383194;28;96751;-69
2022/05/20 10:59:01;;;;;;;8.02;2.58;;;;;;;25.82;36.62;96514.56;10384951;27;96719;-70
2022/05/20 11:04:45;;;;;;;3.85;2.22;;;;;;;25.95;36.24;96502.78;10386787;28;96729;-69
2022/05/20 11:10:04;;;;;;;5.17;2.00;;;;;;;26.07;36.71;96500.03;10383595;28;97128;-69
2022/05/20 11:15:29;;;;;;;3.58;1.80;;;;;;;26.12;36.26;96503.63;10389849;28;101679;-69
2022/05/20 11:20:54;;;;;;;5.07;1.85;;;;;;;26.16;36.11;96506.66;10389714;28;96820;-69
2022/05/20 11:26:24;;;;;;;4.85;1.80;;;;;;;26.25;36.02;96486.47;10388560;28;97194;-69
2022/05/20 11:31:48;;;;;;;3.63;1.85;;;;;;;26.35;36.24;96492.00;10372202;28;96841;-69
2022/05/20 11:37:00;;;;;;;;;;;;;;;26.44;36.29;96488.94;10384126;28;96962;-69
2022/05/20 11:42:16;;;;;;;5.45;2.00;;;;;;;26.55;35.46;96480.00;10390203;28;97050;-69
2022/05/20 11:47:51;;;;;;;7.35;1.88;;;;;;;26.60;35.11;96482.75;10389565;28;99562;-70
2022/05/20 11:53:01;;;;;;;4.18;1.83;;;;;;;26.67;35.17;96483.41;10379983;28;96984;-69
2022/05/20 11:58:08;;;;;;;6.18;1.88;;;;;;;26.80;36.17;96489.53;10385331;28;96709;-69
2022/05/20 12:03:16;;;;;;;6.07;2.20;;;;;;;26.94;35.23;96482.78;10388045;28;96852;-70
2022/05/20 12:08:49;;;;;;;3.90;2.20;;;;;;;27.07;34.79;96473.56;10387876;28;97025;-70
2022/05/20 12:14:07;;;;;;;4.57;1.95;;;;;;;27.25;34.80;96472.50;10386578;28;97912;-69
2022/05/20 12:24:43;;;;;;;4.47;1.98;;;;;;;27.44;34.45;96475.66;10388030;28;96816;-70
2022/05/20 12:30:00;;;;;;;5.13;2.08;;;;;;;27.56;34.14;96462.94;10388733;28;96784;-70
2022/05/20 12:35:11;;;;;;;4.53;1.90;;;;;;;27.76;33.92;96466.94;10387472;28;97051;-69
2022/05/20 12:40:18;;;;;;;5.20;1.80;;;;;;;28.01;33.41;96458.34;10368416;28;97154;-69
2022/05/20 12:45:24;;;;;;;4.78;1.95;;;;;;;28.22;33.52;96454.78;10387177;28;96778;-70
2022/05/20 12:50:31;;;;;;;5.82;2.00;;;;;;;28.48;33.23;96441.63;10387105;28;97447;-70
2022/05/20 12:55:38;;;;;;;5.28;1.88;;;;;;;28.69;33.18;96442.56;10382814;28;97284;-70
2022/05/20 13:00:45;;;;;;;3.88;2.00;;;;;;;28.93;32.70;96448.41;10385992;28;96742;-69
2022/05/20 13:05:51;;;;;;;4.45;1.90;;;;;;;29.28;32.24;96432.69;10387054;28;96868;-70
2022/05/20 13:11:07;;;;;;;5.57;1.83;;;;;;;29.65;32.22;96437.97;10386325;28;96892;-70
2022/05/20 13:16:14;;;;;;;4.22;2.00;;;;;;;29.96;30.92;96427.28;10366246;28;97733;-70
2022/05/20 13:21:21;;;;;;;3.47;1.80;;;;;;;30.08;31.65;96441.28;10386267;28;96931;-70
2022/05/20 13:26:25;;;;;;;4.68;1.70;;;;;;;30.34;30.78;96437.81;10386598;28;96738;-70
2022/05/20 13:31:29;;;;;;;6.05;1.90;;;;;;;30.48;30.15;96445.13;10381862;28;97462;-70
2022/05/20 13:36:38;;;;;;;6.72;1.80;;;;;;;30.46;30.57;96449.97;10386631;28;96872;-70
2022/05/20 13:41:41;;;;;;;6.05;1.98;;;;;;;30.51;30.41;96434.88;10385583;28;96814;-70
2022/05/20 13:52:10;;;;;;;3.75;1.80;;;;;;;30.22;31.41;96443.50;10365121;28;96721;-69
2022/05/20 13:57:16;;;;;;;3.47;1.70;;;;;;;30.28;31.05;96440.53;10385436;27;96917;-70
2022/05/20 14:02:20;;;;;;;6.18;2.25;;;;;;;30.36;31.10;96433.81;10384829;28;96761;-70
2022/05/20 14:07:31;;;;;;;6.10;1.85;;;;;;;30.75;30.70;96430.53;10380831;28;96783;-69
2022/05/20 14:12:46;;;;;;;4.47;1.90;;;;;;;30.94;29.78;96430.78;10377304;28;97054;-70
2022/05/20 14:17:51;;;;;;;7.43;2.28;;;;;;;31.67;29.64;96425.97;10385257;28;97003;-70
2022/05/20 14:22:54;;;;;;;7.25;2.00;;;;;;;32.80;28.44;96425.94;10383792;28;96960;-70
2022/05/20 14:28:12;;;;;;;6.50;1.98;;;;;;;33.59;26.73;96431.03;10382645;28;97115;-70
2022/05/20 14:33:21;;;;;;;8.18;2.30;;;;;;;33.37;27.01;96433.50;10387069;28;97052;-70
2022/05/20 14:38:28;;;;;;;5.38;1.80;;;;;;;33.39;27.25;96426.69;10392004;28;96773;-70
2022/05/20 14:43:35;;;;;;;4.53;1.80;;;;;;;33.34;27.58;96424.03;10386482;28;96851;-70
2022/05/20 14:48:42;;;;;;;6.25;2.13;;;;;;;33.40;27.88;96441.03;10383713;28;97076;-70
2022/05/20 14:54:00;;;;;;;5.75;1.60;;;;;;;33.00;28.11;96448.50;10391305;28;97331;-70
2022/05/20 14:59:03;;;;;;;6.95;2.17;;;;;;;32.12;29.29;96445.69;10390250;28;97399;-70
2022/05/20 15:04:07;;;;;;;4.78;2.13;;;;;;;31.27;29.81;96446.63;10370619;28;96705;-70
2022/05/20 15:09:22;;;;;;;4.25;2.13;;;;;;;30.44;30.95;96422.50;10391227;28;96870;-70
2022/05/20 15:14:25;;;;;;;3.55;1.80;;;;;;;31.29;30.30;96431.75;10390022;27;96731;-70
2022/05/20 15:19:29;;;;;;;9.13;1.92;;;;;;;32.62;28.62;96437.50;10386131;28;101601;-70
2022/05/20 15:24:33;;;;;;;5.13;1.80;;;;;;;33.64;27.51;96444.53;10390944;28;96837;-70
2022/05/20 15:29:42;;;;;;;8.15;2.22;;;;;;;33.91;25.69;96458.56;10387797;28;97848;-70
2022/05/20 15:34:53;;;;;;;5.35;2.15;;;;;;;33.97;25.75;96465.53;10392674;27;97178;-70
2022/05/20 15:40:00;;;;;;;10.95;2.38;;;;;;;34.82;25.59;96466.41;10395007;28;99762;-70
2022/05/20 15:45:03;;;;;;;3.80;1.90;;;;;;;34.96;25.00;96450.16;10395947;27;96931;-70
2022/05/20 15:50:09;;;;;;;7.53;1.77;;;;;;;35.45;24.21;96467.69;10397148;28;96725;-70
2022/05/20 15:55:19;;;;;;;4.30;1.60;;;;;;;34.85;23.96;96492.94;10392446;28;97560;-70
2022/05/20 16:00:23;;;;;;;4.20;1.73;;;;;;;33.48;24.79;96472.88;10387547;28;96798;-71
2022/05/20 16:05:28;;;;;;;4.05;1.75;;;;;;;32.31;26.13;96456.66;10387681;28;96769;-70
2022/05/20 16:10:35;;;;;;;7.22;2.00;;;;;;;31.72;26.92;96466.44;10383573;28;96872;-70
2022/05/20 16:15:39;;;;;;;6.35;2.08;;;;;;;30.94;27.52;96473.16;10379861;28;96897;-70
2022/05/20 16:20:46;;;;;;;5.75;1.98;;;;;;;30.36;27.78;96468.84;10387874;28;96925;-70
2022/05/20 18:14:34;;;;;;;4.93;1.95;;;;;;;25.69;32.13;96545.09;10475332;27;97397;-69
2022/05/20 18:19:40;;;;;;;3.72;2.05;;;;;;;25.50;32.43;96538.25;10444620;27;97679;-69
2022/05/20 18:24:44;;;;;;;7.85;2.17;;;;;;;25.45;32.64;96541.63;10457570;27;100398;-69
2022/05/20 18:29:49;;;;;;;6.65;2.22;;;;;;;25.40;32.70;96544.19;10442119;27;96755;-69
2022/05/20 18:40:14;;;;;;;4.72;1.90;;;;;;;25.14;32.80;96540.94;10442619;27;97529;-69
2022/05/20 18:45:20;;;;;;;5.70;2.17;;;;;;;24.99;33.37;96533.41;10441270;27;97772;-69
2022/05/20 18:50:25;;;;;;;4.80;2.20;;;;;;;24.92;33.39;96543.38;10443773;27;97836;-69
2022/05/20 18:55:29;;;;;;;6.78;2.03;;;;;;;24.82;33.89;96543.94;10443400;27;98885;-69
2022/05/20 19:00:35;;;;;;;8.30;2.17;;;;;;;24.72;33.68;96543.66;10450664;27;96894;-69
2022/05/20 19:05:39;;;;;;;4.57;2.08;;;;;;;24.61;33.95;96544.44;10448548;27;96783;-69
2022/05/20 19:10:44;;;;;;;4.40;1.90;;;;;;;24.49;34.49;96531.91;10448412;27;99223;-70
2022/05/20 19:15:48;;;;;;;;;;;;;;;24.41;34.74;96548.25;10433908;27;97519;-70
2022/05/20 19:20:51;;;;;;;;;;;;;;;24.32;34.97;96536.28;10443706;27;98580;-70
2022/05/20 19:25:54;;;;;;;5.05;2.28;;;;;;;24.23;35.17;96545.66;10397237;27;98973;-69
2022/05/20 19:31:00;;;;;;;4.27;2.30;;;;;;;24.08;35.79;96538.03;10409268;27;97288;-70
2022/05/20 19:36:07;;;;;;;4.03;2.03;;;;;;;23.99;35.78;96548.19;10418115;27;97178;-69
2022/05/20 19:41:10;;;;;;;5.50;2.47;;;;;;;23.88;36.05;96555.09;10417183;27;98264;-70
2022/05/20 19:46:15;;;;;;;5.00;1.97;;;;;;;23.80;36.70;96557.25;10421573;27;96854;-69
2022/05/20 19:51:18;;;;;;;7.10;2.13;;;;;;;23.69;36.84;96556.13;10419140;27;97897;-69
2022/05/20 19:56:22;;;;;;;6.23;2.20;;;;;;;23.59;37.39;96562.00;10408344;28;101035;-70
2022/05/20 20:01:26;;;;;;;7.93;2.28;;;;;;;23.53;37.66;96568.22;10416355;27;96835;-69
2022/05/20 20:06:29;;;;;;;4.88;2.05;;;;;;;23.47;37.52;96575.25;10418608;27;97228;-69
2022/05/20 20:11:32;;;;;;;5.97;2.33;;;;;;;23.42;37.86;96580.44;10409104;28;101497;-70
2022/05/20 20:16:36;;;;;;;3.92;2.35;;;;;;;23.42;37.75;96588.44;10412359;28;97188;-69
2022/05/20 20:27:20;;;;;;;7.07;2.17;;;;;;;23.30;38.25;96596.34;10280417;28;97636;-69
2022/05/20 20:32:24;;;;;;;5.45;2.42;;;;;;;23.30;38.28;96601.66;10277690;28;96869;-69
2022/05/20 20:37:27;;;;;;;6.25;2.30;;;;;;;23.20;38.45;96614.63;10289979;28;96899;-69
2022/05/20 20:42:30;;;;;;;4.83;2.10;;;;;;;23.10;38.68;96617.81;10294964;28;97998;-70
2022/05/20 20:47:36;;;;;;;5.25;2.03;;;;;;;23.05;39.02;96624.81;10279879;28;97068;-70
2022/05/20 20:52:39;;;;;;;5.50;2.38;;;;;;;22.94;39.45;96632.50;10287784;28;97176;-70
2022/05/20 20:57:42;;;;;;;4.32;2.22;;;;;;;22.84;39.86;96642.81;10283825;28;96959;-69
2022/05/20 21:02:46;;;;;;;5.35;2.20;;;;;;;22.70;39.98;96643.91;10345940;27;96870;-69
2022/05/20 21:07:52;;;;;;;4.25;2.38;;;;;;;22.64;40.16;96640.25;10415016;28;98089;-69
2022/05/20 21:12:55;;;;;;;3.83;2.28;;;;;;;22.71;40.08;96640.22;10418385;27;96878;-69
2022/05/20 21:17:59;;;;;;;6.10;2.05;;;;;;;22.73;40.22;96643.47;10415643;27;97827;-70
2022/05/20 21:23:02;;;;;;;;;;;;;;;22.84;39.62;96660.63;10418658;27;96800;-69
2022/05/20 21:28:05;;;;;;;5.05;2.20;;;;;;;22.89;39.55;96653.63;10416928;27;97211;-69
2022/05/20 21:33:10;;;;;;;6.67;2.40;;;;;;;22.86;39.87;96664.72;10417390;27;96891;-69
2022/05/20 21:38:12;;;;;;;5.97;2.50;;;;;;;22.83;39.93;96675.78;10413169;28;96926;-69
2022/05/20 21:43:16;;;;;;;6.50;2.40;;;;;;;22.85;39.76;96668.41;10416681;27;96975;-70
2022/05/20 21:48:21;;;;;;;8.90;2.40;;;;;;;22.87;39.63;96661.00;10413826;27;98706;-69
2022/05/20 21:53:23;;;;;;;5.15;2.80;;;;;;;22.87;39.76;96649.53;10417281;28;97394;-69
2022/05/20 21:58:26;;;;;;;3.92;1.90;;;;;;;22.81;39.93;96665.34;10422611;27;96827;-70
2022/05/20 22:08:54;;;;;;;5.65;2.42;;;;;;;22.70;40.38;96659.88;10426223;27;98018;-69
2022/05/20 22:13:57;;;;;;;5.82;2.55;;;;;;;22.49;40.74;96648.56;10420262;27;98286;-69
2022/05/20 22:19:01;;;;;;;4.97;2.30;;;;;;;22.43;40.91;96657.34;10419506;27;96744;-69
2022/05/20 22:24:04;;;;;;;;;;;;;;;22.45;40.70;96661.41;10418396;27;96877;-69
2022/05/20 22:29:07;;;;;;;5.22;2.47;;;;;;;22.43;40.92;96670.66;10418106;27;96747;-69
2022/05/20 22:34:12;;;;;;;4.90;2.30;;;;;;;22.42;40.82;96669.84;10402211;27;97013;-69
2022/05/20 22:39:15;;;;;;;5.22;2.50;;;;;;;22.44;40.89;96657.13;10412604;27;97906;-69
2022/05/20 22:44:18;;;;;;;4.43;2.60;;;;;;;22.38;41.29;96659.81;10402170;27;97217;-69
2022/05/20 22:49:22;;;;;;;4.60;2.05;;;;;;;22.36;41.19;96645.91;10413153;27;98615;-69
2022/05/20 22:54:25;;;;;;;6.53;2.30;;;;;;;22.32;41.42;96655.34;10413068;27;99610;-69
2022/05/20 22:59:28;;;;;;;3.72;2.10;;;;;;;22.24;41.71;96662.53;10422733;27;96710;-69
2022/05/20 23:04:33;;;;;;;8.65;2.40;;;;;;;22.10;41.98;96666.28;10421178;27;96857;-69
2022/05/20 23:09:36;;;;;;;4.53;2.35;;;;;;;22.03;41.90;96676.94;10418867;27;98710;-69
2022/05/20 23:14:39;;;;;;;6.07;2.45;;;;;;;21.90;42.10;96674.34;10413583;27;98446;-69
2022/05/20 23:19:43;;;;;;;6.60;2.30;;;;;;;21.78;42.15;96678.63;10411257;27;98506;-69
2022/05/20 23:24:46;;;;;;;6.53;2.80;;;;;;;21.63;42.37;96677.03;10414004;27;98971;-69
2022/05/20 23:29:49;;;;;;;6.13;3.08;;;;;;;21.59;42.63;96677.63;10418051;27;98035;-69
2022/05/20 23:34:56;;;;;;;6.88;2.15;;;;;;;21.53;42.99;96681.13;10417972;27;96895;-69
2022/05/20 23:39:59;;;;;;;4.35;2.15;;;;;;;21.34;43.53;96688.88;10410989;27;97791;-69
2022/05/20 23:45:01;;;;;;;6.05;2.70;;;;;;;21.22;43.72;96675.38;10416064;28;99208;-69
2022/05/20 23:50:09;;;;;;;4.38;2.17;;;;;;;21.12;43.54;96675.81;10416750;28;97025;-69
